TimeCST,TemperatureF,Dew PointF,Humidity,Sea Level PressureIn,VisibilityMPH,Wind Direction,Wind SpeedMPH,Gust SpeedMPH,PrecipitationIn,Events,Conditions,WindDirDegrees,DateUTC
12:53 AM,28.9,23.0,78,30.40,10.0,South,10.4,-,N/A,,Clear,180,2013-01-18 06:53:00
1:53 AM,34.0,26.1,73,30.40,10.0,South,11.5,-,N/A,,Clear,190,2013-01-18 07:53:00
2:53 AM,34.0,26.1,73,30.38,10.0,South,13.8,-,N/A,,Clear,190,2013-01-18 08:53:00
3:53 AM,34.0,26.1,73,30.36,10.0,South,12.7,-,N/A,,Clear,190,2013-01-18 09:53:00
4:53 AM,35.1,26.1,70,30.34,10.0,SSW,17.3,23.0,N/A,,Clear,200,2013-01-18 10:53:00
5:53 AM,35.1,26.1,70,30.32,10.0,SSW,17.3,26.5,N/A,,Clear,200,2013-01-18 11:53:00
6:53 AM,34.0,26.1,73,30.32,10.0,SSW,13.8,-,N/A,,Clear,200,2013-01-18 12:53:00
7:53 AM,36.0,26.1,67,30.29,10.0,SSW,18.4,-,N/A,,Partly Cloudy,200,2013-01-18 13:53:00
8:53 AM,39.0,26.1,60,30.28,10.0,SSW,26.5,-,N/A,,Partly Cloudy,210,2013-01-18 14:53:00
9:53 AM,43.0,27.0,53,30.25,10.0,SSW,24.2,35.7,N/A,,Partly Cloudy,200,2013-01-18 15:53:00
10:53 AM,48.9,28.0,44,30.22,10.0,SW,20.7,35.7,N/A,,Partly Cloudy,220,2013-01-18 16:53:00
11:53 AM,51.1,27.0,39,30.16,10.0,SW,28.8,41.4,N/A,,Partly Cloudy,220,2013-01-18 17:53:00
12:53 PM,54.0,28.0,37,30.12,10.0,SSW,20.7,35.7,N/A,,Clear,210,2013-01-18 18:53:00
1:53 PM,55.0,28.9,37,30.08,10.0,SSW,26.5,33.4,N/A,,Clear,200,2013-01-18 19:53:00
2:53 PM,57.0,28.0,33,30.04,10.0,SW,27.6,36.8,N/A,,Clear,220,2013-01-18 20:53:00
3:53 PM,55.9,28.0,34,30.04,10.0,SSW,21.9,34.5,N/A,,Partly Cloudy,210,2013-01-18 21:53:00
4:53 PM,55.0,28.0,35,30.05,10.0,SW,16.1,26.5,N/A,,Scattered Clouds,220,2013-01-18 22:53:00
5:53 PM,51.1,28.0,41,30.06,10.0,SSW,15.0,-,N/A,,Scattered Clouds,210,2013-01-18 23:53:00
6:53 PM,51.1,28.0,41,30.06,10.0,SSW,19.6,-,N/A,,Scattered Clouds,210,2013-01-19 00:53:00
7:53 PM,48.0,28.0,46,30.07,10.0,SSW,17.3,-,N/A,,Scattered Clouds,210,2013-01-19 01:53:00
8:53 PM,46.9,28.9,50,30.05,10.0,SSW,19.6,26.5,N/A,,Scattered Clouds,200,2013-01-19 02:53:00
9:53 PM,46.0,28.9,51,30.04,10.0,SSW,19.6,26.5,N/A,,Scattered Clouds,210,2013-01-19 03:53:00
10:53 PM,46.0,28.0,50,30.02,10.0,SW,19.6,26.5,N/A,,Scattered Clouds,220,2013-01-19 04:53:00
11:53 PM,46.0,28.9,51,30.00,10.0,SSW,23.0,31.1,N/A,,Clear,210,2013-01-19 05:53:00